Time;durP1;ratioP1;P1;durP2;ratioP2;P2;SDS_P1;SDS_P2;PMS_P1;PMS_P2;Temp;Humidity;BMP_temperature;BMP_pressure;BME280_temperature;BME280_humidity;BME280_pressure;Samples;Min_cycle;Max_cycle;Signal;HPM_P1;HPM_P2
2022/08/25 00:00:12;;;;;;;4.93;4.63;;;;;;;20.11;69.74;66319.94;5113783;28;20180;-71
2022/08/25 00:02:38;;;;;;;5.23;4.80;;;;;;;;;;5114312;28;20193;-71
2022/08/25 00:05:05;;;;;;;4.47;4.40;;;;;;;19.97;70.38;66302.22;5114251;28;20181;-70
2022/08/25 00:07:35;;;;;;;14.87;4.67;;;;;;;19.94;70.38;66301.50;5113746;28;20229;-71
2022/08/25 00:10:03;;;;;;;5.43;5.23;;;;;;;19.90;70.57;66299.09;5113933;28;20189;-71
2022/08/25 00:12:29;;;;;;;5.10;4.90;;;;;;;;;;5113833;28;20238;-71
2022/08/25 00:14:55;;;;;;;9.23;4.97;;;;;;;19.83;71.38;66286.56;5113908;28;20545;-70
2022/08/25 00:17:22;;;;;;;4.43;4.33;;;;;;;19.80;71.12;66283.22;5113858;28;20213;-70
2022/08/25 00:19:48;;;;;;;5.67;5.50;;;;;;;19.74;71.45;66282.34;5116431;28;20243;-70
2022/08/25 00:22:15;;;;;;;5.50;5.30;;;;;;;19.69;71.18;66279.38;5117735;28;20181;-70
2022/08/25 00:24:41;;;;;;;5.37;5.07;;;;;;;19.69;71.29;66284.09;5117996;28;20531;-70
2022/08/25 00:27:09;;;;;;;5.20;5.00;;;;;;;19.75;70.77;66283.44;5117591;28;20238;-70
2022/08/25 00:29:37;;;;;;;5.10;4.90;;;;;;;19.73;70.70;66278.59;5117611;28;20181;-70
2022/08/25 00:32:04;;;;;;;5.60;5.30;;;;;;;19.73;70.75;66272.75;5118091;28;20192;-70
2022/08/25 00:34:34;;;;;;;5.83;5.73;;;;;;;19.73;70.51;66278.59;5117826;28;20185;-70
2022/08/25 00:37:02;;;;;;;4.60;4.60;;;;;;;19.74;70.46;66277.06;5117316;28;20636;-70
2022/08/25 00:39:29;;;;;;;6.00;5.47;;;;;;;19.76;70.17;66284.00;5117725;28;20177;-70
2022/08/25 00:41:57;;;;;;;6.33;5.73;;;;;;;19.82;70.09;66287.53;5117394;28;20230;-70
2022/08/25 00:44:24;;;;;;;5.90;5.80;;;;;;;;;;5117930;28;20181;-70
2022/08/25 00:46:55;;;;;;;6.27;5.53;;;;;;;19.75;69.88;66277.63;5117252;28;20258;-70
2022/08/25 00:49:48;;;;;;;5.50;5.40;;;;;;;19.71;70.23;66270.50;5117550;28;20544;-70
2022/08/25 00:52:28;;;;;;;5.37;5.27;;;;;;;19.72;70.27;66279.53;5117166;28;20238;-70
2022/08/25 00:55:00;;;;;;;5.13;5.03;;;;;;;19.70;70.25;66277.84;5117423;28;20181;-70
2022/08/25 00:57:36;;;;;;;5.70;5.50;;;;;;;;;;5117267;28;20212;-70
2022/08/25 01:00:05;;;;;;;5.40;5.30;;;;;;;;;;5117277;28;20189;-70
2022/08/25 01:02:32;;;;;;;5.43;5.23;;;;;;;19.61;70.26;66267.25;5116976;28;20227;-70
2022/08/25 01:04:58;;;;;;;7.03;5.20;;;;;;;19.66;70.23;66270.22;5117149;28;20594;-70
2022/08/25 01:07:25;;;;;;;5.20;4.90;;;;;;;19.63;70.06;66267.41;5117071;28;20201;-70
2022/08/25 01:09:52;;;;;;;5.83;5.60;;;;;;;19.56;70.82;66256.38;5116885;28;20238;-70
2022/08/25 01:12:19;;;;;;;5.27;5.07;;;;;;;19.57;70.54;66257.47;5115690;28;20667;-70
2022/08/25 01:14:47;;;;;;;5.77;5.60;;;;;;;19.52;70.62;66258.28;5115568;28;20185;-70
2022/08/25 01:17:14;;;;;;;6.50;6.07;;;;;;;19.44;71.04;66244.09;5115483;28;20349;-70
2022/08/25 01:19:41;;;;;;;5.67;5.47;;;;;;;19.44;70.98;66233.56;5115496;28;20185;-70
2022/08/25 01:22:09;;;;;;;5.47;5.37;;;;;;;19.38;71.29;66242.09;5115420;28;20185;-70
2022/08/25 01:25:00;;;;;;;5.67;5.57;;;;;;;19.33;71.29;66231.25;5115626;28;20226;-70
2022/08/25 01:27:27;;;;;;;5.53;5.43;;;;;;;19.31;71.69;66229.56;5115463;28;20205;-70
2022/08/25 01:29:54;;;;;;;5.00;4.90;;;;;;;19.31;71.35;66226.94;5114899;28;20261;-70
2022/08/25 01:32:20;;;;;;;4.90;4.80;;;;;;;19.29;71.73;66227.34;5115246;28;20712;-70
2022/08/25 01:34:47;;;;;;;5.90;5.43;;;;;;;19.27;71.83;66235.63;5115480;28;20238;-70
2022/08/25 01:37:18;;;;;;;5.60;5.53;;;;;;;19.22;71.54;66232.69;5115605;28;20212;-70
2022/08/25 01:39:44;;;;;;;5.10;4.90;;;;;;;;;;5115138;28;20196;-70
2022/08/25 01:42:11;;;;;;;6.00;5.80;;;;;;;19.12;72.11;66214.16;5115102;28;20189;-70
2022/08/25 01:44:40;;;;;;;5.87;5.70;;;;;;;19.09;72.46;66205.00;5115068;28;20230;-70
2022/08/25 01:47:07;;;;;;;6.30;6.20;;;;;;;19.04;72.72;66202.03;5115237;28;20246;-70
2022/08/25 01:49:35;;;;;;;6.03;5.50;;;;;;;18.92;73.38;66187.13;5114987;28;20241;-70
2022/08/25 01:52:11;;;;;;;4.83;4.83;;;;;;;18.90;73.52;66198.03;5114954;28;20559;-70
2022/08/25 01:54:38;;;;;;;5.40;5.20;;;;;;;18.90;73.65;66186.97;5115187;28;20226;-70
2022/08/25 01:57:04;;;;;;;6.47;6.00;;;;;;;18.85;73.64;66181.94;5114992;28;20217;-70
2022/08/25 01:59:31;;;;;;;5.97;5.17;;;;;;;18.80;74.20;66173.19;5115085;28;20718;-70
2022/08/25 02:01:57;;;;;;;5.53;5.43;;;;;;;18.77;74.31;66173.00;5114771;28;20186;-70
2022/08/25 02:04:30;;;;;;;5.23;5.13;;;;;;;18.70;74.37;66159.94;5114756;28;20207;-70
2022/08/25 02:06:58;;;;;;;5.53;5.43;;;;;;;18.71;74.38;66168.94;5114669;28;20703;-70
2022/08/25 02:09:25;;;;;;;6.03;5.70;;;;;;;18.70;74.37;66165.75;5114696;28;20186;-70
2022/08/25 02:11:51;;;;;;;5.73;5.43;;;;;;;18.74;74.26;66167.03;5115655;28;20720;-70
2022/08/25 02:14:18;;;;;;;5.33;5.23;;;;;;;18.73;74.03;66175.88;5115882;28;20663;-70
2022/08/25 02:16:48;;;;;;;5.40;5.30;;;;;;;18.74;73.91;66164.41;5115557;28;20239;-70
2022/08/25 02:19:15;;;;;;;5.83;5.60;;;;;;;18.73;73.95;66176.44;5115817;28;20266;-70
2022/08/25 02:21:42;;;;;;;5.30;5.10;;;;;;;18.74;73.71;66177.56;5115744;28;20213;-70
2022/08/25 02:24:09;;;;;;;4.63;4.40;;;;;;;18.75;73.84;66167.59;5115663;28;20189;-70
2022/08/25 02:26:36;;;;;;;4.83;4.83;;;;;;;18.74;74.51;66167.03;5097031;28;20205;-70
2022/08/25 02:29:05;;;;;;;5.77;5.67;;;;;;;18.67;73.48;66156.59;5115573;28;20193;-70
2022/08/25 02:31:32;;;;;;;4.97;4.83;;;;;;;18.58;73.54;66152.34;5115268;28;20185;-70
2022/08/25 02:33:58;;;;;;;4.87;4.77;;;;;;;18.53;74.36;66151.47;5115752;28;20189;-70
2022/08/25 02:36:25;;;;;;;5.77;5.40;;;;;;;18.47;74.92;66140.06;5115254;28;20209;-71
2022/08/25 02:38:52;;;;;;;6.17;6.03;;;;;;;18.44;75.30;66134.09;5115060;28;20189;-71
2022/08/25 02:41:22;;;;;;;5.50;5.40;;;;;;;18.36;75.65;66125.72;5114546;28;20189;-71
2022/08/25 02:43:56;;;;;;;5.83;5.50;;;;;;;18.27;75.75;66120.34;5115058;28;20230;-71
2022/08/25 02:46:23;;;;;;;6.17;5.80;;;;;;;18.15;76.15;66105.47;5114883;28;20317;-71
2022/08/25 02:48:51;;;;;;;5.50;5.40;;;;;;;18.04;76.86;66090.56;5115161;28;20583;-71
2022/08/25 02:51:20;;;;;;;5.70;5.50;;;;;;;18.04;77.11;66093.19;5115123;28;20181;-71
2022/08/25 02:53:47;;;;;;;5.63;5.53;;;;;;;;;;5115089;28;20211;-70
2022/08/25 02:56:15;;;;;;;5.07;5.07;;;;;;;17.97;77.09;66082.75;5114746;28;20277;-71
2022/08/25 02:58:41;;;;;;;5.30;5.20;;;;;;;17.96;77.30;66081.06;5114736;28;20247;-70
2022/08/25 03:01:10;;;;;;;5.20;5.20;;;;;;;;;;5114697;28;20189;-70
2022/08/25 03:03:39;;;;;;;5.63;5.53;;;;;;;17.88;78.48;66075.34;5114637;28;20185;-70
2022/08/25 03:06:08;;;;;;;6.30;6.13;;;;;;;17.85;78.51;66066.72;5114826;28;20688;-71
2022/08/25 03:08:36;;;;;;;5.77;5.30;;;;;;;17.81;78.90;66065.44;5114836;28;20205;-70
2022/08/25 03:11:04;;;;;;;6.43;5.93;;;;;;;17.72;79.20;66052.25;5114812;28;20201;-70
2022/08/25 03:13:31;;;;;;;5.23;5.23;;;;;;;17.70;79.55;66055.22;5114792;28;20189;-70
2022/08/25 03:15:59;;;;;;;6.37;5.73;;;;;;;17.70;79.62;66055.22;5114378;28;20234;-71
2022/08/25 03:18:26;;;;;;;4.70;4.70;;;;;;;17.67;79.46;66046.63;5114259;28;20686;-70
2022/08/25 03:20:53;;;;;;;5.53;5.43;;;;;;;17.65;79.86;66050.22;5114647;28;20637;-70
2022/08/25 03:23:20;;;;;;;5.70;5.50;;;;;;;17.65;80.09;66047.03;5114544;28;20177;-70
2022/08/25 03:28:32;;;;;;;5.97;5.57;;;;;;;;;;5114545;28;20169;-70
2022/08/25 03:31:00;;;;;;;5.30;5.20;;;;;;;17.61;80.14;66045.75;5114211;28;20181;-70
2022/08/25 03:33:30;;;;;;;6.27;5.77;;;;;;;17.57;80.55;66043.91;5114100;28;20712;-70
2022/08/25 03:35:58;;;;;;;7.47;5.73;;;;;;;17.57;80.41;66043.91;5114035;28;20231;-70
2022/08/25 03:38:25;;;;;;;5.30;5.20;;;;;;;17.57;80.39;66041.84;5114250;28;20209;-70
2022/08/25 03:40:52;;;;;;;5.80;5.40;;;;;;;17.55;80.36;66041.69;5114268;28;20207;-70
2022/08/25 03:43:19;;;;;;;5.77;5.67;;;;;;;17.52;80.16;66041.53;5114216;28;20189;-70
2022/08/25 03:45:46;;;;;;;5.93;5.63;;;;;;;17.49;80.07;66027.09;5114154;28;20182;-71
2022/08/25 03:48:14;;;;;;;4.80;4.73;;;;;;;17.47;80.05;66030.13;5114174;28;20617;-71
2022/08/25 03:50:47;;;;;;;5.97;5.53;;;;;;;17.41;79.82;66037.13;5113863;28;20589;-71
2022/08/25 03:53:19;;;;;;;5.50;5.30;;;;;;;17.38;79.80;66020.09;5113942;28;20517;-71
2022/08/25 03:55:46;;;;;;;5.50;5.43;;;;;;;17.33;80.09;66013.00;5113670;28;20185;-71
2022/08/25 03:58:12;;;;;;;6.67;6.43;;;;;;;17.30;80.82;66011.75;5113713;28;20209;-70
2022/08/25 04:00:39;;;;;;;5.93;5.57;;;;;;;17.27;81.82;66016.81;5113792;28;20185;-70
2022/08/25 04:03:06;;;;;;;6.23;6.13;;;;;;;17.25;81.89;66006.16;5113735;28;20309;-70
2022/08/25 04:05:33;;;;;;;6.70;6.10;;;;;;;17.22;81.89;65997.56;5113743;28;20237;-70
2022/08/25 04:08:00;;;;;;;6.43;5.93;;;;;;;17.17;82.36;66003.03;5113636;28;20283;-70
2022/08/25 04:10:28;;;;;;;5.47;5.40;;;;;;;17.15;82.48;65989.78;5113668;28;20228;-70
2022/08/25 04:12:56;;;;;;;8.53;5.73;;;;;;;17.08;82.95;65984.59;5113878;28;20215;-70
2022/08/25 04:15:23;;;;;;;6.20;5.73;;;;;;;17.06;82.86;65983.47;5113573;28;20186;-70
2022/08/25 04:17:54;;;;;;;6.47;5.97;;;;;;;17.04;82.88;65983.31;5113414;28;20300;-70
2022/08/25 04:20:20;;;;;;;5.73;5.50;;;;;;;17.02;83.17;65983.69;5113445;28;20189;-70
2022/08/25 04:22:47;;;;;;;5.80;5.53;;;;;;;16.98;83.65;65979.22;5113752;28;20193;-70
2022/08/25 04:25:13;;;;;;;6.47;6.03;;;;;;;16.96;83.78;65990.69;5113474;28;20708;-70
2022/08/25 04:27:40;;;;;;;6.70;6.17;;;;;;;16.95;83.81;65978.53;5113637;28;20246;-70
2022/08/25 04:30:07;;;;;;;6.23;6.00;;;;;;;17.01;83.61;65977.91;5113723;28;20181;-70
2022/08/25 04:32:35;;;;;;;6.97;5.43;;;;;;;;;;5113719;28;20215;-70
2022/08/25 04:35:03;;;;;;;5.93;5.63;;;;;;;16.92;83.96;65972.53;5113388;28;20239;-70
2022/08/25 04:37:29;;;;;;;6.23;5.83;;;;;;;16.92;84.16;65972.53;5113732;28;20205;-70
2022/08/25 04:39:56;;;;;;;5.53;5.30;;;;;;;16.83;84.68;65968.31;5113631;28;20651;-70
2022/08/25 04:42:22;;;;;;;6.00;5.90;;;;;;;16.87;84.25;65961.75;5113895;28;20675;-70
2022/08/25 04:44:49;;;;;;;5.50;5.30;;;;;;;16.91;83.79;65964.13;5113636;28;20174;-70
2022/08/25 04:47:15;;;;;;;6.43;6.07;;;;;;;16.96;83.93;65982.81;5113390;28;20205;-70
2022/08/25 04:49:42;;;;;;;5.87;5.77;;;;;;;16.95;83.60;65991.63;5113618;28;20193;-70
2022/08/25 04:52:08;;;;;;;6.67;6.03;;;;;;;16.87;84.58;65962.28;5095518;28;20185;-70
2022/08/25 04:54:40;;;;;;;6.63;5.40;;;;;;;16.91;84.01;65968.81;5113582;28;20212;-70
2022/08/25 04:57:06;;;;;;;13.23;6.53;;;;;;;16.89;84.04;65961.91;5113082;28;20209;-70
2022/08/25 04:59:33;;;;;;;6.07;5.97;;;;;;;17.00;83.91;65982.03;5113488;28;20242;-70
2022/08/25 05:02:04;;;;;;;6.30;5.93;;;;;;;16.95;83.92;65973.28;5113182;28;20597;-70
2022/08/25 05:04:31;;;;;;;6.30;5.83;;;;;;;;;;5113727;28;20181;-70
2022/08/25 05:06:58;;;;;;;5.93;5.63;;;;;;;16.98;84.06;65974.53;5116879;28;20205;-70
2022/08/25 05:09:25;;;;;;;7.00;6.47;;;;;;;16.94;84.54;65970.09;5117130;28;20254;-70
2022/08/25 05:11:52;;;;;;;7.33;6.27;;;;;;;16.95;85.08;65970.66;5116735;28;20729;-70
2022/08/25 05:14:21;;;;;;;7.27;6.77;;;;;;;17.05;84.43;65982.34;5116720;28;20185;-70
2022/08/25 05:16:52;;;;;;;6.67;6.23;;;;;;;17.11;84.22;65988.47;5116715;28;20209;-70
2022/08/25 05:19:19;;;;;;;6.57;6.33;;;;;;;17.16;84.08;65993.50;5116680;28;20717;-70
2022/08/25 05:21:46;;;;;;;6.70;6.60;;;;;;;17.21;84.25;65999.63;5116832;28;20600;-70
2022/08/25 05:24:12;;;;;;;6.73;6.37;;;;;;;17.23;84.58;66001.88;5116662;28;20173;-70
2022/08/25 05:26:38;;;;;;;6.73;6.53;;;;;;;17.29;84.24;66013.81;5116474;28;20213;-70
2022/08/25 05:29:05;;;;;;;7.20;6.73;;;;;;;;;;5116755;28;20700;-69
2022/08/25 05:31:34;;;;;;;10.63;6.67;;;;;;;17.42;83.36;66019.31;5116492;28;20221;-69
2022/08/25 05:34:07;;;;;;;7.53;6.87;;;;;;;17.49;83.26;66038.16;5116354;28;20189;-70
2022/08/25 05:36:34;;;;;;;7.20;6.47;;;;;;;17.60;82.92;66049.88;5116242;28;20234;-70
2022/08/25 05:39:02;;;;;;;11.90;6.67;;;;;;;17.67;82.79;66052.44;5116269;28;20209;-69
2022/08/25 05:41:30;;;;;;;7.33;6.83;;;;;;;17.75;82.55;66064.00;5116799;28;20588;-69
2022/08/25 05:43:56;;;;;;;6.70;6.50;;;;;;;17.91;82.19;66075.50;5116169;28;20241;-69
2022/08/25 05:46:24;;;;;;;12.47;6.43;;;;;;;17.97;82.05;66082.19;5116566;28;20213;-70
2022/08/25 05:48:51;;;;;;;6.67;6.30;;;;;;;18.03;81.91;66092.06;5116682;28;20169;-69
2022/08/25 05:51:18;;;;;;;6.60;6.30;;;;;;;18.12;81.55;66096.28;5116193;28;20592;-69
2022/08/25 05:53:47;;;;;;;6.93;6.60;;;;;;;18.23;81.25;66115.91;5116299;28;20203;-69
2022/08/25 05:56:13;;;;;;;6.53;6.43;;;;;;;;;;5116131;28;20201;-70
2022/08/25 05:58:41;;;;;;;6.77;6.37;;;;;;;18.34;80.55;66123.47;5116084;28;20201;-69
2022/08/25 06:03:53;;;;;;;7.40;7.00;;;;;;;18.51;80.78;66143.97;5116415;28;20178;-69
2022/08/25 06:06:22;;;;;;;6.57;6.33;;;;;;;18.62;80.22;66156.25;5115667;28;20209;-70
2022/08/25 06:08:48;;;;;;;7.47;6.97;;;;;;;18.72;80.04;66164.22;5115538;28;20203;-70
2022/08/25 06:11:15;;;;;;;7.90;6.67;;;;;;;18.82;80.02;66172.78;5115623;28;20250;-70
2022/08/25 06:13:42;;;;;;;6.87;6.67;;;;;;;18.90;79.92;66184.34;5115632;28;20185;-70
2022/08/25 06:16:08;;;;;;;7.23;6.50;;;;;;;;;;5114198;28;20691;-70
2022/08/25 06:18:35;;;;;;;7.83;6.87;;;;;;;19.15;78.30;66216.97;5115430;28;20559;-69
2022/08/25 06:21:12;;;;;;;7.20;6.60;;;;;;;19.28;78.28;66225.66;5115751;28;20185;-69
2022/08/25 06:23:39;;;;;;;6.97;6.50;;;;;;;;;;5115967;28;20226;-69
2022/08/25 06:26:09;;;;;;;7.13;6.53;;;;;;;19.48;76.90;66248.53;5115291;28;20205;-69
2022/08/25 06:28:46;;;;;;;6.13;5.93;;;;;;;19.57;76.30;66254.84;5115311;28;20173;-69
2022/08/25 06:31:12;;;;;;;6.13;5.97;;;;;;;19.62;76.85;66261.03;5115302;28;20181;-69
2022/08/25 06:33:39;;;;;;;6.43;6.10;;;;;;;;;;5115531;28;20269;-69
2022/08/25 06:36:06;;;;;;;6.37;6.20;;;;;;;19.82;76.21;66290.72;5115375;28;20201;-70
2022/08/25 06:38:32;;;;;;;8.30;6.63;;;;;;;19.96;76.31;66297.91;5115088;28;20620;-70
2022/08/25 06:41:05;;;;;;;7.33;6.50;;;;;;;;;;5115027;28;20185;-69
2022/08/25 06:43:33;;;;;;;7.10;6.70;;;;;;;20.22;74.53;66326.41;5115622;28;20174;-69
2022/08/25 06:46:10;;;;;;;6.47;6.00;;;;;;;20.23;74.33;66330.72;5115405;28;20250;-70
2022/08/25 06:48:37;;;;;;;6.53;6.13;;;;;;;;;;5114959;28;20181;-69
2022/08/25 06:51:08;;;;;;;6.23;6.03;;;;;;;20.45;74.13;66354.22;5114882;28;20242;-69
2022/08/25 06:53:39;;;;;;;6.87;6.37;;;;;;;20.56;73.35;66359.16;5114924;28;20173;-69
2022/08/25 06:56:05;;;;;;;9.33;5.80;;;;;;;20.67;73.73;66375.63;5114701;28;20266;-70
2022/08/25 06:58:32;;;;;;;6.23;5.93;;;;;;;20.80;73.38;66403.34;5115477;28;20253;-69
2022/08/25 07:01:10;;;;;;;5.70;5.60;;;;;;;20.91;73.22;66407.72;5114890;28;20556;-69
2022/08/25 07:03:45;;;;;;;6.93;6.73;;;;;;;21.10;71.81;66428.44;5114662;28;20187;-69
2022/08/25 07:06:13;;;;;;;6.23;6.13;;;;;;;21.21;72.21;66434.88;5115082;28;20198;-70
2022/08/25 07:08:42;;;;;;;11.63;6.07;;;;;;;21.33;72.00;66456.81;5114540;28;20209;-70
2022/08/25 07:11:09;;;;;;;6.50;6.10;;;;;;;21.44;71.17;66455.38;5114459;28;20181;-70
2022/08/25 07:13:44;;;;;;;6.73;5.97;;;;;;;21.55;70.65;66472.94;5097484;28;20205;-70
2022/08/25 07:16:10;;;;;;;6.20;5.90;;;;;;;;;;5114352;28;20228;-70
2022/08/25 07:18:37;;;;;;;6.77;6.23;;;;;;;21.67;70.10;66489.03;5114486;28;20693;-69
2022/08/25 07:21:04;;;;;;;5.63;5.53;;;;;;;21.84;70.02;66504.28;5114824;28;20177;-69
2022/08/25 07:23:34;;;;;;;7.50;6.10;;;;;;;21.95;68.90;66521.91;5114312;28;20219;-69
2022/08/25 07:26:13;;;;;;;5.30;5.20;;;;;;;21.99;69.16;66516.34;5114207;28;20182;-70
2022/08/25 07:29:01;;;;;;;6.50;5.83;;;;;;;22.12;67.62;66540.38;5114449;28;20252;-70
2022/08/25 07:31:28;;;;;;;5.60;5.53;;;;;;;22.21;67.84;66548.38;5114394;28;20604;-70
2022/08/25 07:36:42;;;;;;;6.37;5.70;;;;;;;22.34;67.88;66562.38;5114502;28;20208;-69
2022/08/25 07:39:08;;;;;;;6.00;5.57;;;;;;;22.42;68.22;66570.75;5114058;28;20197;-69
2022/08/25 07:41:35;;;;;;;6.00;5.37;;;;;;;;;;5113940;28;20238;-69
2022/08/25 07:44:03;;;;;;;5.00;4.67;;;;;;;22.61;68.05;66589.41;5114206;28;20182;-68
2022/08/25 07:46:30;;;;;;;5.90;5.50;;;;;;;22.75;66.81;66607.16;5095683;28;20270;-69
2022/08/25 07:48:59;;;;;;;6.80;4.53;;;;;;;;;;5114193;28;20182;-69
2022/08/25 07:51:25;;;;;;;5.90;4.93;;;;;;;22.96;66.03;66630.72;5113785;28;20663;-69
2022/08/25 07:53:52;;;;;;;5.77;5.30;;;;;;;23.04;64.99;66639.69;5114080;28;20185;-69
2022/08/25 07:56:19;;;;;;;23.17;5.43;;;;;;;;;;5113700;28;20270;-68
2022/08/25 07:58:46;;;;;;;7.07;5.40;;;;;;;23.17;64.63;66653.69;5113962;28;20205;-68
2022/08/25 08:01:16;;;;;;;4.57;4.43;;;;;;;;;;5113745;28;20717;-68
2022/08/25 08:03:44;;;;;;;5.43;4.97;;;;;;;23.24;64.74;66653.59;5114046;28;20230;-69
2022/08/25 08:06:19;;;;;;;6.45;5.38;;;;;;;23.27;64.60;66656.94;5113758;28;20231;-69
2022/08/25 08:08:48;;;;;;;5.10;4.73;;;;;;;;;;5114116;28;20200;-68
2022/08/25 08:11:33;;;;;;;7.45;4.63;;;;;;;23.43;63.56;66684.34;5113461;28;20201;-68
2022/08/25 08:14:00;;;;;;;5.80;4.72;;;;;;;;;;5113657;28;20169;-68
2022/08/25 08:16:28;;;;;;;4.67;4.57;;;;;;;23.49;62.01;66688.41;5114091;28;20201;-69
2022/08/25 08:18:56;;;;;;;4.03;3.67;;;;;;;23.52;63.16;66689.16;5113904;28;20205;-69
2022/08/25 08:21:28;;;;;;;5.20;4.82;;;;;;;;;;5114279;28;20177;-69
2022/08/25 08:23:55;;;;;;;4.70;3.88;;;;;;;23.71;63.68;66713.09;5114044;28;20208;-69
2022/08/25 08:26:26;;;;;;;4.70;4.63;;;;;;;23.88;62.14;66729.53;5113767;28;20200;-69
2022/08/25 08:29:15;;;;;;;5.55;5.20;;;;;;;24.11;60.67;66757.41;5113863;28;20205;-69
2022/08/25 08:31:41;;;;;;;4.53;4.18;;;;;;;24.23;60.15;66767.09;5113505;28;20234;-68
2022/08/25 08:34:15;;;;;;;4.38;4.28;;;;;;;24.24;59.76;66768.75;5113694;28;20192;-69
2022/08/25 08:36:41;;;;;;;6.10;4.93;;;;;;;;;;5095816;28;20205;-69
2022/08/25 08:39:10;;;;;;;4.93;4.70;;;;;;;24.32;59.80;66780.38;5113380;28;20205;-69
2022/08/25 08:44:43;;;;;;;4.35;4.00;;;;;;;;;;5117591;28;20189;-69
2022/08/25 08:47:35;;;;;;;4.18;4.18;;;;;;;24.50;58.54;66799.47;5117443;28;20624;-69
2022/08/25 08:50:25;;;;;;;4.97;4.78;;;;;;;24.46;59.00;66795.00;5117222;28;20545;-69
2022/08/25 08:53:01;;;;;;;6.93;4.40;;;;;;;;;;5117814;28;20569;-69
2022/08/25 08:55:31;;;;;;;4.30;4.10;;;;;;;;;;5117505;28;20234;-69
2022/08/25 08:58:08;;;;;;;3.80;3.80;;;;;;;24.58;59.28;66806.38;5117083;28;20744;-69
2022/08/25 09:00:43;;;;;;;4.90;4.80;;;;;;;24.64;59.29;66815.75;5117617;28;20186;-69
2022/08/25 09:03:26;;;;;;;4.47;4.15;;;;;;;;;;5117117;28;20176;-69
2022/08/25 09:05:58;;;;;;;4.78;4.70;;;;;;;24.89;57.47;66842.69;5117093;28;20165;-69
2022/08/25 09:08:25;;;;;;;4.80;4.70;;;;;;;25.01;57.24;66852.94;5117354;28;20182;-69
2022/08/25 09:11:07;;;;;;;4.53;4.43;;;;;;;25.15;56.49;66871.88;5116952;28;20193;-69
2022/08/25 09:13:54;;;;;;;4.40;4.30;;;;;;;25.25;56.34;66879.88;5117044;28;20186;-69
2022/08/25 09:16:54;;;;;;;3.67;3.58;;;;;;;25.36;57.16;66892.25;5116975;28;20213;-70
2022/08/25 09:19:24;;;;;;;4.28;4.15;;;;;;;25.57;55.87;66915.22;5117226;28;20193;-69
2022/08/25 09:21:59;;;;;;;4.15;4.05;;;;;;;25.60;55.27;66920.72;5116854;28;20185;-68
2022/08/25 09:24:44;;;;;;;4.75;4.65;;;;;;;;;;5116644;28;20700;-69
2022/08/25 09:27:16;;;;;;;4.93;4.47;;;;;;;25.76;55.08;66939.25;5116858;28;20209;-69
2022/08/25 09:30:23;;;;;;;4.47;4.47;;;;;;;25.73;54.77;66935.88;5117014;28;20169;-69
2022/08/25 09:33:02;;;;;;;8.02;4.65;;;;;;;;;;5100153;28;20209;-69
2022/08/25 09:35:31;;;;;;;6.13;5.07;;;;;;;;;;5116702;28;20185;-69
2022/08/25 09:38:01;;;;;;;4.43;4.10;;;;;;;;;;5116213;28;20225;-69
2022/08/25 09:40:28;;;;;;;4.15;4.15;;;;;;;;;;5116615;28;20234;-68
2022/08/25 09:42:58;;;;;;;6.28;4.40;;;;;;;26.01;53.31;66966.22;5097887;28;20594;-69
2022/08/25 09:45:33;;;;;;;19.05;4.40;;;;;;;;;;5116152;28;20206;-68
2022/08/25 09:47:59;;;;;;;4.38;4.00;;;;;;;26.00;52.46;66965.66;5116305;28;20686;-69
2022/08/25 09:50:28;;;;;;;4.50;4.40;;;;;;;;;;5115736;28;20652;-69
2022/08/25 09:53:11;;;;;;;3.75;3.72;;;;;;;26.21;52.21;66991.31;5115801;28;20256;-69
2022/08/25 09:55:45;;;;;;;9.82;4.22;;;;;;;26.37;52.89;67002.88;5116064;28;20193;-70
2022/08/25 09:58:22;;;;;;;5.40;3.95;;;;;;;;;;5116252;28;20200;-69
2022/08/25 10:01:15;;;;;;;3.95;3.95;;;;;;;;;;5116145;28;20615;-69
2022/08/25 10:03:54;;;;;;;4.07;3.88;;;;;;;;;;5111499;28;20197;-69
2022/08/25 10:06:22;;;;;;;3.92;3.92;;;;;;;26.53;50.66;67020.84;5116277;28;20297;-69
2022/08/25 10:08:49;;;;;;;4.38;4.22;;;;;;;26.47;50.18;67022.09;5115823;28;20680;-69
2022/08/25 10:11:34;;;;;;;4.22;4.13;;;;;;;;;;5097444;28;20205;-69
2022/08/25 10:14:15;;;;;;;3.60;3.33;;;;;;;26.64;50.85;67033.19;5115644;28;20198;-69
2022/08/25 10:16:42;;;;;;;4.47;4.32;;;;;;;;;;5115715;28;20205;-69
2022/08/25 10:19:22;;;;;;;4.78;4.28;;;;;;;;;;5115783;28;20197;-69
2022/08/25 10:22:20;;;;;;;3.30;3.25;;;;;;;;;;5115816;28;20178;-69
2022/08/25 10:24:47;;;;;;;4.22;4.10;;;;;;;26.98;48.87;67072.97;5060280;28;20254;-69
2022/08/25 10:27:14;;;;;;;3.85;3.53;;;;;;;;;;5115274;28;20201;-69
2022/08/25 10:30:02;;;;;;;3.42;3.42;;;;;;;27.12;48.34;67086.06;5115612;28;20181;-69
2022/08/25 10:32:48;;;;;;;3.45;3.35;;;;;;;27.24;46.43;67101.66;5115556;28;20185;-69
2022/08/25 10:35:17;;;;;;;5.63;3.65;;;;;;;;;;5115844;28;20215;-69
2022/08/25 10:38:02;;;;;;;6.95;3.60;;;;;;;;;;5115121;28;20200;-69
2022/08/25 10:40:37;;;;;;;3.47;3.40;;;;;;;;;;5115032;28;20682;-70
2022/08/25 10:43:15;;;;;;;5.85;3.80;;;;;;;;;;5115146;28;20168;-69
2022/08/25 10:45:48;;;;;;;3.70;3.70;;;;;;;;;;5115251;28;20208;-69
2022/08/25 10:48:26;;;;;;;3.47;3.38;;;;;;;;;;5114995;28;20265;-69
2022/08/25 10:51:11;;;;;;;6.68;4.03;;;;;;;27.61;45.23;67142.69;5115225;28;20173;-69
2022/08/25 10:53:48;;;;;;;5.80;3.70;;;;;;;;;;5114835;28;20698;-69
2022/08/25 10:56:32;;;;;;;4.20;3.78;;;;;;;27.47;45.81;67126.94;5114765;28;20575;-70
2022/08/25 10:59:38;;;;;;;3.95;3.60;;;;;;;27.55;44.76;67125.81;5115267;28;20189;-70
2022/08/25 11:02:22;;;;;;;3.25;3.03;;;;;;;;;;5114418;28;20565;-69
2022/08/25 11:04:58;;;;;;;9.10;3.72;;;;;;;;;;5114905;28;20226;-69
2022/08/25 11:07:27;;;;;;;3.85;3.80;;;;;;;;;;5114870;28;20612;-69
2022/08/25 11:09:56;;;;;;;3.47;3.38;;;;;;;;;;5114882;28;20187;-69
2022/08/25 11:12:29;;;;;;;3.88;3.78;;;;;;;27.60;45.22;67138.91;5114414;28;20713;-69
2022/08/25 11:15:00;;;;;;;3.53;3.53;;;;;;;;;;5114768;28;20182;-69
2022/08/25 11:17:44;;;;;;;3.88;3.67;;;;;;;;;;5114449;28;20238;-69
2022/08/25 11:20:21;;;;;;;3.42;3.33;;;;;;;27.51;44.43;67123.44;5114879;28;20190;-69
2022/08/25 11:23:12;;;;;;;3.70;3.25;;;;;;;;;;5114563;28;20193;-69
2022/08/25 11:26:01;;;;;;;3.55;3.45;;;;;;;27.64;45.08;67146.06;5114233;28;20204;-69
2022/08/25 11:28:52;;;;;;;3.45;3.45;;;;;;;27.64;45.40;67143.94;5114499;28;20253;-70
2022/08/25 11:31:21;;;;;;;3.28;3.10;;;;;;;27.65;45.81;67147.19;5114514;28;20173;-70
2022/08/25 11:33:49;;;;;;;2.95;2.95;;;;;;;27.72;45.00;67157.16;5114111;28;20181;-70
2022/08/25 11:36:34;;;;;;;3.35;3.15;;;;;;;27.77;43.86;67157.47;5114346;28;20212;-70
2022/08/25 11:39:16;;;;;;;2.88;2.88;;;;;;;27.94;42.47;67176.59;5114258;28;20189;-70
2022/08/25 11:42:16;;;;;;;2.83;2.83;;;;;;;28.16;41.91;67203.44;5114304;28;20197;-69
2022/08/25 11:44:44;;;;;;;3.20;3.00;;;;;;;28.12;42.60;67196.84;5080767;28;20607;-69
2022/08/25 11:47:37;;;;;;;3.78;3.47;;;;;;;28.13;43.73;67200.63;5113899;28;20690;-68
2022/08/25 11:50:22;;;;;;;3.35;3.35;;;;;;;;;;5114213;28;20218;-69
2022/08/25 11:52:58;;;;;;;3.85;3.75;;;;;;;27.94;43.06;67168.59;5113789;28;20173;-69
2022/08/25 11:55:50;;;;;;;3.63;3.63;;;;;;;28.03;43.96;67188.81;5114141;28;20288;-69
2022/08/25 11:58:31;;;;;;;3.55;3.50;;;;;;;28.37;41.42;67224.44;5114382;28;20165;-69
2022/08/25 12:01:01;;;;;;;3.00;3.00;;;;;;;28.25;42.37;67210.91;5113688;28;20192;-69
2022/08/25 12:03:30;;;;;;;3.08;2.92;;;;;;;;;;5114015;28;20693;-69
2022/08/25 12:06:17;;;;;;;3.45;3.35;;;;;;;;;;5113535;28;20603;-70
2022/08/25 12:08:49;;;;;;;3.20;3.17;;;;;;;;;;5113582;28;20222;-69
2022/08/25 12:11:34;;;;;;;2.70;2.70;;;;;;;;;;5113747;28;20197;-70
2022/08/25 12:14:37;;;;;;;2.90;2.90;;;;;;;28.63;40.63;67255.78;5115792;28;20181;-70
2022/08/25 12:17:05;;;;;;;2.88;2.70;;;;;;;;;;5118224;28;20751;-70
2022/08/25 12:19:35;;;;;;;2.75;2.75;;;;;;;;;;5118088;28;20189;-70
2022/08/25 12:22:03;;;;;;;2.92;2.88;;;;;;;;;;5117975;28;20669;-70
2022/08/25 12:24:41;;;;;;;5.97;2.83;;;;;;;28.92;39.17;67284.63;5118009;28;20189;-70
2022/08/25 12:27:32;;;;;;;9.95;3.42;;;;;;;28.84;40.88;67278.28;5117826;28;20208;-70
2022/08/25 12:30:10;;;;;;;9.90;3.83;;;;;;;;;;5117966;28;20177;-70
2022/08/25 12:33:15;;;;;;;4.20;4.00;;;;;;;28.79;40.85;67273.81;5117883;28;20251;-69
2022/08/25 12:35:57;;;;;;;3.22;3.03;;;;;;;28.77;41.02;67270.97;5117550;28;20181;-69
2022/08/25 12:38:43;;;;;;;3.90;3.67;;;;;;;28.56;41.30;67247.91;5117750;28;20188;-70
2022/08/25 12:41:25;;;;;;;3.55;3.35;;;;;;;28.49;41.86;67237.34;5117383;28;20679;-69
2022/08/25 12:43:53;;;;;;;3.58;3.47;;;;;;;;;;5099126;28;20713;-69